Time;durP1;ratioP1;P1;durP2;ratioP2;P2;SDS_P1;SDS_P2;PMS_P1;PMS_P2;Temp;Humidity;BMP_temperature;BMP_pressure;BME280_temperature;BME280_humidity;BME280_pressure;Samples;Min_cycle;Max_cycle;Signal;HPM_P1;HPM_P2
2022/10/30 00:00:46;;;;;;;8.95;5.05;;;28.80;94.30;;;;;;4947950;29;20019;-45
2022/10/30 00:03:13;;;;;;;8.45;4.13;;;28.80;94.40;;;;;;4948118;29;20378;-45
2022/10/30 00:05:45;;;;;;;8.95;3.63;;;28.80;94.40;;;;;;4948450;29;20103;-50
2022/10/30 00:08:14;;;;;;;5.20;3.47;;;28.80;94.30;;;;;;4948280;29;20039;-48
2022/10/30 00:10:41;;;;;;;4.18;3.45;;;28.80;94.20;;;;;;4947994;29;20039;-50
2022/10/30 00:13:08;;;;;;;6.10;3.40;;;28.80;94.20;;;;;;4947668;29;20032;-46
2022/10/30 00:15:35;;;;;;;6.75;3.47;;;28.70;94.30;;;;;;4947925;29;20128;-47
2022/10/30 00:18:02;;;;;;;5.45;3.47;;;28.80;94.50;;;;;;4947653;29;20064;-45
2022/10/30 00:20:29;;;;;;;4.38;3.70;;;28.80;94.50;;;;;;4947807;29;20039;-51
2022/10/30 00:22:57;;;;;;;5.60;4.00;;;28.80;94.60;;;;;;4947583;29;20031;-44
2022/10/30 00:25:23;;;;;;;6.13;4.63;;;28.80;94.80;;;;;;4930313;29;20032;-44
2022/10/30 00:27:50;;;;;;;5.30;4.53;;;28.80;94.70;;;;;;4947358;29;20023;-44
2022/10/30 00:30:17;;;;;;;5.07;4.43;;;28.80;94.70;;;;;;4947646;29;20256;-45
2022/10/30 00:32:45;;;;;;;6.53;4.53;;;28.80;94.80;;;;;;4947059;29;20024;-47
2022/10/30 00:35:12;;;;;;;7.90;4.70;;;28.70;94.70;;;;;;4947505;29;20103;-51
2022/10/30 00:37:38;;;;;;;4.65;3.47;;;28.70;94.70;;;;;;4947637;29;20031;-49
2022/10/30 00:40:06;;;;;;;5.53;3.53;;;28.70;94.50;;;;;;4947668;29;20031;-44
2022/10/30 00:42:34;;;;;;;4.90;3.53;;;28.70;94.30;;;;;;4947315;29;20058;-45
2022/10/30 00:45:01;;;;;;;8.60;3.67;;;28.70;94.30;;;;;;4947190;29;20040;-46
2022/10/30 00:47:39;;;;;;;3.72;3.22;;;28.70;94.30;;;;;;4947327;29;20032;-50
2022/10/30 00:50:24;;;;;;;3.85;3.42;;;28.70;94.30;;;;;;4947291;29;20279;-48
2022/10/30 00:53:17;;;;;;;5.35;3.40;;;28.70;94.20;;;;;;4947074;29;20271;-50
2022/10/30 00:55:54;;;;;;;5.05;3.13;;;28.60;94.10;;;;;;4946998;29;20083;-50
2022/10/30 00:58:29;;;;;;;4.88;2.78;;;28.60;94.10;;;;;;4947132;29;20035;-48
2022/10/30 01:00:59;;;;;;;5.97;2.85;;;28.60;94.10;;;;;;4945184;29;20035;-51
2022/10/30 01:03:29;;;;;;;3.03;2.40;;;28.60;94.00;;;;;;4946652;29;20024;-48
2022/10/30 01:06:00;;;;;;;3.00;2.58;;;28.50;93.80;;;;;;4945650;29;20062;-53
2022/10/30 01:08:27;;;;;;;5.18;2.60;;;28.50;93.70;;;;;;4946480;29;20055;-48
2022/10/30 01:10:57;;;;;;;4.25;2.30;;;28.50;93.80;;;;;;4930317;29;20023;-45
2022/10/30 01:13:25;;;;;;;4.13;2.78;;;28.50;93.80;;;;;;4947843;29;20028;-44
2022/10/30 01:16:11;;;;;;;5.93;2.70;;;28.50;94.00;;;;;;4928477;29;20063;-46
2022/10/30 01:19:04;;;;;;;3.85;2.50;;;28.40;94.10;;;;;;4943282;29;20031;-43
2022/10/30 01:21:52;;;;;;;4.00;2.40;;;28.30;94.00;;;;;;4946052;29;20098;-46
2022/10/30 01:24:43;;;;;;;4.50;2.42;;;28.20;94.10;;;;;;4951326;29;20035;-50
2022/10/30 01:27:19;;;;;;;4.57;3.00;;;28.10;94.10;;;;;;4945545;29;20035;-51
2022/10/30 01:30:14;;;;;;;2.95;2.58;;;28.10;94.10;;;;;;4946508;29;20058;-49
2022/10/30 01:32:59;;;;;;;5.05;2.38;;;28.10;94.20;;;;;;4945872;29;20040;-46
2022/10/30 01:35:36;;;;;;;5.07;2.42;;;28.10;94.20;;;;;;4946757;29;20027;-48
2022/10/30 01:38:11;;;;;;;5.25;2.55;;;28.10;94.40;;;;;;4946211;29;20023;-46
2022/10/30 01:40:38;;;;;;;4.20;2.05;;;28.10;94.20;;;;;;4946365;29;20062;-47
2022/10/30 01:43:06;;;;;;;2.95;2.40;;;28.10;94.10;;;;;;4946619;29;20044;-44
2022/10/30 01:46:02;;;;;;;3.15;2.30;;;28.10;94.00;;;;;;4946092;29;20047;-44
2022/10/30 01:49:06;;;;;;;2.97;2.10;;;28.10;94.10;;;;;;4941116;29;20072;-49
2022/10/30 01:52:11;;;;;;;3.55;2.60;;;28.10;94.30;;;;;;4926738;29;20032;-47
2022/10/30 01:54:57;;;;;;;3.42;2.35;;;28.00;94.40;;;;;;4885869;29;20107;-42
2022/10/30 01:57:47;;;;;;;5.55;2.65;;;28.00;94.50;;;;;;4925362;29;20095;-48
2022/10/30 02:00:16;;;;;;;4.05;2.90;;;27.90;94.70;;;;;;4910131;29;20028;-50
2022/10/30 02:02:43;;;;;;;7.13;2.88;;;27.80;94.80;;;;;;4926721;29;20032;-45
2022/10/30 02:05:22;;;;;;;3.85;2.72;;;27.80;94.90;;;;;;4927075;29;20055;-48
2022/10/30 02:07:48;;;;;;;6.40;3.33;;;27.80;94.90;;;;;;4928325;29;20039;-42
2022/10/30 02:10:15;;;;;;;5.97;2.72;;;27.70;95.10;;;;;;4927597;29;20055;-46
2022/10/30 02:12:42;;;;;;;4.30;2.88;;;27.80;95.20;;;;;;4926297;29;20036;-45
2022/10/30 02:15:10;;;;;;;6.07;2.90;;;27.80;95.30;;;;;;4927013;29;20028;-45
2022/10/30 02:17:39;;;;;;;3.95;2.85;;;27.80;95.20;;;;;;4927227;29;20091;-47
2022/10/30 02:20:07;;;;;;;5.03;3.00;;;27.80;95.20;;;;;;4928337;29;20091;-45
2022/10/30 02:22:33;;;;;;;7.00;2.83;;;27.80;95.10;;;;;;4930373;29;20103;-47
2022/10/30 02:25:00;;;;;;;5.18;2.80;;;27.90;95.10;;;;;;4930689;29;20032;-48
2022/10/30 02:27:27;;;;;;;4.80;3.30;;;27.90;95.00;;;;;;4930185;29;20028;-48
2022/10/30 02:29:53;;;;;;;6.05;3.40;;;27.90;95.00;;;;;;4930089;29;20048;-46
2022/10/30 02:32:24;;;;;;;4.50;3.38;;;27.90;94.90;;;;;;4929436;29;20316;-49
2022/10/30 02:34:51;;;;;;;6.03;2.77;;;27.90;94.90;;;;;;4928513;29;20035;-49
2022/10/30 02:37:18;;;;;;;5.75;2.95;;;27.90;94.80;;;;;;4930158;29;20031;-46
2022/10/30 02:39:44;;;;;;;4.22;3.33;;;27.90;94.80;;;;;;4930254;29;20087;-45
2022/10/30 02:42:11;;;;;;;4.40;2.92;;;27.90;94.80;;;;;;4929399;29;20211;-47
2022/10/30 02:44:37;;;;;;;7.15;3.47;;;27.90;94.80;;;;;;4930594;29;20111;-49
2022/10/30 02:47:04;;;;;;;7.13;3.80;;;27.90;94.80;;;;;;4929975;29;20036;-45
2022/10/30 02:49:30;;;;;;;4.13;3.47;;;27.90;95.00;;;;;;4930135;29;20064;-46
2022/10/30 02:51:57;;;;;;;7.60;3.20;;;27.90;95.00;;;;;;4929706;29;20265;-47
2022/10/30 02:54:24;;;;;;;5.15;2.83;;;27.90;95.00;;;;;;4930489;29;20028;-50
2022/10/30 02:56:51;;;;;;;5.13;3.58;;;27.90;94.90;;;;;;4929965;29;20028;-48
2022/10/30 02:59:19;;;;;;;5.90;4.03;;;27.90;94.80;;;;;;4929671;29;20035;-45
2022/10/30 03:01:46;;;;;;;6.25;3.70;;;27.90;94.90;;;;;;4929894;29;20031;-47
2022/10/30 03:04:12;;;;;;;7.15;3.60;;;27.90;95.00;;;;;;4930004;29;20048;-50
2022/10/30 03:06:39;;;;;;;5.50;3.05;;;27.90;95.00;;;;;;4929895;29;20047;-46
2022/10/30 03:09:05;;;;;;;6.38;3.20;;;27.90;94.90;;;;;;4929606;29;20020;-44
2022/10/30 03:11:33;;;;;;;7.10;3.30;;;27.90;94.90;;;;;;4929884;29;20036;-48
2022/10/30 03:14:00;;;;;;;8.45;3.40;;;27.90;95.00;;;;;;4929314;29;20024;-45
2022/10/30 03:16:30;;;;;;;5.45;3.10;;;27.90;94.90;;;;;;4929799;29;20091;-43
2022/10/30 03:18:57;;;;;;;4.50;3.10;;;27.90;94.90;;;;;;4929433;29;20040;-46
2022/10/30 03:21:26;;;;;;;7.10;3.10;;;27.90;95.00;;;;;;4929695;29;20028;-45
2022/10/30 03:23:53;;;;;;;5.30;3.15;;;27.90;94.90;;;;;;4929383;29;20036;-45
2022/10/30 03:26:20;;;;;;;4.72;2.90;;;27.80;94.90;;;;;;4929703;29;20296;-45
2022/10/30 03:28:47;;;;;;;4.95;3.00;;;27.80;95.00;;;;;;4929078;29;20063;-42
2022/10/30 03:31:16;;;;;;;5.03;2.92;;;27.80;94.90;;;;;;4928828;29;20036;-48
2022/10/30 03:33:44;;;;;;;8.65;2.55;;;27.80;94.90;;;;;;4929288;29;20060;-44
2022/10/30 03:36:12;;;;;;;6.63;2.33;;;27.80;94.80;;;;;;4929494;29;20044;-45
2022/10/30 03:38:39;;;;;;;6.32;2.75;;;27.80;94.60;;;;;;4929197;29;20016;-48
2022/10/30 03:41:06;;;;;;;8.60;2.67;;;27.80;94.70;;;;;;4929338;29;20043;-49
2022/10/30 03:43:33;;;;;;;6.18;2.38;;;27.80;94.70;;;;;;4929068;29;20452;-43
2022/10/30 03:45:59;;;;;;;4.90;2.20;;;27.80;94.60;;;;;;4929222;29;20032;-46
2022/10/30 03:48:28;;;;;;;7.75;2.50;;;27.80;94.70;;;;;;4932450;29;20039;-44
2022/10/30 03:50:56;;;;;;;6.50;2.20;;;27.80;94.50;;;;;;4948170;29;20239;-47
2022/10/30 03:53:24;;;;;;;3.78;2.50;;;27.80;94.50;;;;;;4947810;29;20031;-50
2022/10/30 03:55:59;;;;;;;6.40;2.40;;;27.70;94.40;;;;;;4947216;29;20211;-50
2022/10/30 03:58:27;;;;;;;4.50;2.60;;;27.70;94.50;;;;;;4947879;29;20319;-47
2022/10/30 04:00:54;;;;;;;4.95;2.58;;;27.70;94.50;;;;;;4947915;29;20023;-44
2022/10/30 04:03:20;;;;;;;7.07;2.53;;;27.70;94.40;;;;;;4947381;29;20066;-50
2022/10/30 04:05:49;;;;;;;4.50;2.58;;;27.70;94.40;;;;;;4947793;29;20342;-50
2022/10/30 04:08:17;;;;;;;5.40;2.70;;;27.70;94.50;;;;;;4947560;29;20043;-43
2022/10/30 04:10:45;;;;;;;6.25;2.75;;;27.70;94.40;;;;;;4947550;29;20039;-43
2022/10/30 04:13:14;;;;;;;6.20;2.60;;;27.70;94.40;;;;;;4947370;29;20216;-46
2022/10/30 04:15:42;;;;;;;5.43;2.67;;;27.70;94.40;;;;;;4947460;29;20027;-46
2022/10/30 04:18:15;;;;;;;5.60;2.70;;;27.60;94.40;;;;;;4947206;29;20026;-48
2022/10/30 04:20:42;;;;;;;6.63;2.75;;;27.60;94.50;;;;;;4947506;29;20032;-44
2022/10/30 04:23:14;;;;;;;5.03;2.83;;;27.60;94.70;;;;;;4947278;29;20043;-44
2022/10/30 04:25:41;;;;;;;5.43;2.72;;;27.60;94.70;;;;;;4947591;29;20383;-48
2022/10/30 04:28:08;;;;;;;11.45;3.53;;;27.60;94.70;;;;;;4947159;29;20035;-45
2022/10/30 04:30:35;;;;;;;12.52;3.30;;;27.60;94.80;;;;;;4947259;29;20027;-45
2022/10/30 04:33:07;;;;;;;12.88;3.53;;;27.60;94.80;;;;;;4947423;29;20315;-45
2022/10/30 04:35:38;;;;;;;10.07;2.90;;;27.60;94.80;;;;;;4947222;29;20106;-46
2022/10/30 04:38:07;;;;;;;8.95;3.10;;;27.60;94.90;;;;;;4946002;29;20020;-44
2022/10/30 04:40:38;;;;;;;8.07;3.38;;;27.60;94.80;;;;;;4947037;29;20031;-47
2022/10/30 04:43:06;;;;;;;16.25;3.45;;;27.50;94.80;;;;;;4946272;29;20042;-52
2022/10/30 04:45:33;;;;;;;9.20;3.20;;;27.60;94.90;;;;;;4946872;29;20091;-48
2022/10/30 04:48:04;;;;;;;7.20;2.95;;;27.50;94.90;;;;;;4946678;29;20327;-43
2022/10/30 04:50:32;;;;;;;10.13;3.03;;;27.50;94.90;;;;;;4947037;29;20051;-50
2022/10/30 04:53:03;;;;;;;7.60;2.75;;;27.50;95.00;;;;;;4946626;29;20371;-43
2022/10/30 04:55:30;;;;;;;8.70;2.75;;;27.60;94.90;;;;;;4946788;29;20047;-49
2022/10/30 04:57:58;;;;;;;9.93;3.25;;;27.50;95.00;;;;;;4946490;29;20051;-44
2022/10/30 05:00:25;;;;;;;9.35;2.72;;;27.50;95.00;;;;;;4946798;29;20103;-47
2022/10/30 05:02:52;;;;;;;10.48;3.00;;;27.50;95.00;;;;;;4946551;29;20047;-42
2022/10/30 05:05:19;;;;;;;7.72;2.80;;;27.50;95.10;;;;;;4947076;29;20310;-44
2022/10/30 05:07:45;;;;;;;8.82;2.60;;;27.50;95.10;;;;;;4946717;29;20087;-44
2022/10/30 05:10:13;;;;;;;6.35;2.30;;;27.50;95.00;;;;;;4946713;29;20082;-51
2022/10/30 05:12:42;;;;;;;8.43;2.85;;;27.50;95.10;;;;;;4946424;29;20354;-46
2022/10/30 05:15:09;;;;;;;8.35;2.72;;;27.40;95.00;;;;;;4946553;29;20111;-48
2022/10/30 05:17:36;;;;;;;10.23;2.50;;;27.40;94.90;;;;;;4946421;29;20027;-43
2022/10/30 05:20:03;;;;;;;6.80;2.00;;;27.50;94.90;;;;;;4946554;29;20024;-46
2022/10/30 05:22:31;;;;;;;6.80;2.28;;;27.40;94.80;;;;;;4946770;29;20034;-46
2022/10/30 05:24:57;;;;;;;9.00;2.55;;;27.40;94.90;;;;;;4946477;29;20220;-44
2022/10/30 05:27:24;;;;;;;5.13;1.90;;;27.40;94.90;;;;;;4946349;29;20046;-45
2022/10/30 05:29:51;;;;;;;4.80;1.90;;;27.40;94.80;;;;;;4946596;29;20169;-44
2022/10/30 05:32:17;;;;;;;5.93;2.00;;;27.40;94.90;;;;;;4946431;29;20032;-44
2022/10/30 05:34:44;;;;;;;12.32;2.30;;;27.40;94.80;;;;;;4946395;29;20020;-45
2022/10/30 05:37:10;;;;;;;5.20;1.88;;;27.40;94.90;;;;;;4946558;29;20028;-43
2022/10/30 05:39:37;;;;;;;3.90;1.80;;;27.40;94.90;;;;;;4946362;29;20047;-43
2022/10/30 05:42:03;;;;;;;9.40;2.10;;;27.30;94.90;;;;;;4946244;29;20027;-45
2022/10/30 05:44:30;;;;;;;3.35;1.85;;;27.30;94.80;;;;;;4946129;29;20027;-48
2022/10/30 05:46:56;;;;;;;7.50;2.10;;;27.40;94.90;;;;;;4946173;29;20028;-48
2022/10/30 05:49:23;;;;;;;8.18;2.20;;;27.40;94.90;;;;;;4945927;29;20167;-46
2022/10/30 05:51:50;;;;;;;6.55;2.05;;;27.30;94.90;;;;;;4946169;29;20079;-44
2022/10/30 05:54:16;;;;;;;8.98;2.05;;;27.30;94.90;;;;;;4947809;29;20035;-47
2022/10/30 05:56:43;;;;;;;4.35;1.88;;;27.30;94.90;;;;;;4950478;29;20020;-45
2022/10/30 05:59:09;;;;;;;6.47;2.08;;;27.40;94.90;;;;;;4949756;29;20216;-43
2022/10/30 06:01:36;;;;;;;7.70;1.90;;;27.30;94.90;;;;;;4950313;29;20038;-44
2022/10/30 06:04:02;;;;;;;6.25;2.22;;;27.30;94.90;;;;;;4949945;29;20028;-46
2022/10/30 06:06:29;;;;;;;8.98;2.90;;;27.30;94.80;;;;;;4950089;29;20031;-48
2022/10/30 06:08:56;;;;;;;4.35;3.13;;;27.30;94.80;;;;;;4949950;29;20032;-50
2022/10/30 06:11:22;;;;;;;10.25;4.47;;;27.30;94.90;;;;;;4949963;29;20360;-45
2022/10/30 06:13:49;;;;;;;12.48;4.65;;;27.30;94.90;;;;;;4949495;29;20316;-47
2022/10/30 06:16:15;;;;;;;7.72;4.43;;;27.30;94.80;;;;;;4949896;29;20032;-44
2022/10/30 06:18:42;;;;;;;10.07;4.70;;;27.30;94.80;;;;;;4949489;29;20208;-45
2022/10/30 06:21:08;;;;;;;8.45;4.15;;;27.30;94.80;;;;;;4949656;29;20216;-48
2022/10/30 06:23:35;;;;;;;6.07;3.13;;;27.30;94.90;;;;;;4949390;29;20055;-45
2022/10/30 06:26:01;;;;;;;8.32;3.22;;;27.30;94.90;;;;;;4949701;29;20055;-44
2022/10/30 06:28:28;;;;;;;6.93;2.92;;;27.30;94.90;;;;;;4949259;29;20036;-47
2022/10/30 06:30:54;;;;;;;7.28;2.53;;;27.30;94.90;;;;;;4949791;29;20094;-44
2022/10/30 06:33:21;;;;;;;7.38;2.63;;;27.30;94.80;;;;;;4949191;29;20219;-50
2022/10/30 06:35:49;;;;;;;5.90;2.13;;;27.20;94.60;;;;;;4949418;29;20227;-43
2022/10/30 06:38:16;;;;;;;7.22;2.00;;;27.30;94.80;;;;;;4949292;29;20091;-43
2022/10/30 06:40:43;;;;;;;6.47;2.40;;;27.20;94.70;;;;;;4949428;29;20028;-51
2022/10/30 06:43:09;;;;;;;5.97;1.73;;;27.20;94.70;;;;;;4949163;29;20372;-44
2022/10/30 06:45:36;;;;;;;9.45;2.20;;;27.20;94.80;;;;;;4948898;29;20039;-48
2022/10/30 06:48:02;;;;;;;3.83;2.00;;;27.20;94.70;;;;;;4948940;29;20083;-43
2022/10/30 06:50:29;;;;;;;7.60;2.55;;;27.20;94.80;;;;;;4949126;29;20066;-44
2022/10/30 06:52:55;;;;;;;3.90;2.40;;;27.20;94.70;;;;;;4949013;29;20115;-45
2022/10/30 06:55:22;;;;;;;10.05;2.70;;;27.20;94.60;;;;;;4949285;29;20024;-44
2022/10/30 06:57:58;;;;;;;8.95;2.75;;;27.20;94.80;;;;;;4948795;29;20051;-46
2022/10/30 07:00:24;;;;;;;8.48;2.65;;;27.10;94.70;;;;;;4948936;29;20189;-43
2022/10/30 07:02:58;;;;;;;6.65;2.47;;;27.10;94.80;;;;;;4948820;29;20054;-46
2022/10/30 07:05:25;;;;;;;7.05;2.13;;;27.10;94.70;;;;;;4948154;29;20047;-45
2022/10/30 07:07:54;;;;;;;5.90;2.20;;;27.10;94.70;;;;;;4948621;29;20071;-44
2022/10/30 07:10:21;;;;;;;5.25;1.95;;;27.10;94.60;;;;;;4948820;29;20090;-44
2022/10/30 07:12:51;;;;;;;7.63;2.03;;;27.10;94.60;;;;;;4948289;29;20260;-48
2022/10/30 07:15:18;;;;;;;9.15;2.38;;;27.10;94.70;;;;;;4948782;29;20031;-44
2022/10/30 07:18:01;;;;;;;5.10;2.17;;;27.10;94.60;;;;;;4948484;29;20019;-49
2022/10/30 07:20:31;;;;;;;6.15;2.03;;;27.10;94.60;;;;;;4948675;29;20107;-44
2022/10/30 07:22:57;;;;;;;7.20;2.00;;;27.10;94.60;;;;;;4948290;29;20036;-45
2022/10/30 07:25:24;;;;;;;6.15;2.08;;;27.00;94.60;;;;;;4948328;29;20039;-45
2022/10/30 07:27:52;;;;;;;4.20;1.85;;;27.00;94.60;;;;;;4948238;29;20091;-42
2022/10/30 07:30:21;;;;;;;3.90;2.03;;;27.00;94.70;;;;;;4948131;29;20075;-41
2022/10/30 07:32:57;;;;;;;5.88;2.00;;;27.00;94.70;;;;;;4948015;29;20294;-42
2022/10/30 07:35:23;;;;;;;5.88;1.85;;;27.00;94.70;;;;;;4948312;29;20038;-44
2022/10/30 07:37:50;;;;;;;7.13;1.92;;;27.00;94.70;;;;;;4948132;29;20026;-45
2022/10/30 07:40:17;;;;;;;5.60;2.25;;;27.00;94.60;;;;;;4948104;29;20032;-48
2022/10/30 07:42:43;;;;;;;5.03;2.10;;;27.00;94.60;;;;;;4948010;29;20063;-44
2022/10/30 07:45:10;;;;;;;6.68;1.75;;;27.00;94.70;;;;;;4948262;29;20065;-48
2022/10/30 07:47:43;;;;;;;4.88;1.75;;;27.00;94.70;;;;;;4947811;29;20064;-49
2022/10/30 07:50:10;;;;;;;5.25;1.83;;;27.00;94.60;;;;;;4947851;29;20070;-46
2022/10/30 07:52:37;;;;;;;5.72;1.90;;;27.00;94.60;;;;;;4947685;29;20043;-42
2022/10/30 07:55:04;;;;;;;4.18;1.85;;;27.00;94.70;;;;;;4947806;29;20066;-42
2022/10/30 07:57:36;;;;;;;5.10;1.70;;;27.00;94.70;;;;;;4947672;29;20087;-40
2022/10/30 08:00:05;;;;;;;6.18;1.80;;;26.90;94.70;;;;;;4947622;29;20107;-45
2022/10/30 08:02:32;;;;;;;4.18;1.80;;;26.90;94.80;;;;;;4947703;29;20042;-40
2022/10/30 08:04:59;;;;;;;5.88;1.70;;;26.90;94.80;;;;;;4947575;29;20339;-40
2022/10/30 08:07:36;;;;;;;8.35;1.90;;;26.90;94.80;;;;;;4947476;29;20067;-45
2022/10/30 08:10:04;;;;;;;6.55;1.80;;;26.90;94.80;;;;;;4947499;29;20055;-42
2022/10/30 08:12:33;;;;;;;7.45;1.70;;;26.90;94.90;;;;;;4947373;29;20058;-42
2022/10/30 08:15:00;;;;;;;6.63;1.90;;;26.90;94.90;;;;;;4947298;29;20024;-44
2022/10/30 08:17:27;;;;;;;5.25;1.55;;;26.90;94.80;;;;;;4946478;29;20039;-47
2022/10/30 08:19:54;;;;;;;6.45;2.10;;;26.90;94.80;;;;;;4947345;29;20028;-44
2022/10/30 08:22:21;;;;;;;5.95;1.75;;;26.90;94.90;;;;;;4947110;29;20204;-42
2022/10/30 08:24:47;;;;;;;5.90;1.75;;;26.90;94.90;;;;;;4947379;29;20038;-46
2022/10/30 08:27:14;;;;;;;4.95;1.80;;;26.90;94.90;;;;;;4947291;29;20023;-43
2022/10/30 08:29:41;;;;;;;7.90;1.70;;;26.90;94.90;;;;;;4947088;29;20046;-43
2022/10/30 08:32:07;;;;;;;4.20;1.63;;;26.90;94.90;;;;;;4947315;29;20031;-46
2022/10/30 08:34:34;;;;;;;5.90;1.70;;;26.90;95.00;;;;;;4946884;29;20054;-48
2022/10/30 08:37:01;;;;;;;6.47;2.28;;;26.90;95.30;;;;;;4946910;29;20055;-43
2022/10/30 08:39:27;;;;;;;8.52;1.90;;;26.90;94.90;;;;;;4947202;29;20020;-42
2022/10/30 08:41:55;;;;;;;8.75;2.00;;;26.90;94.90;;;;;;4946917;29;20035;-42
2022/10/30 08:44:22;;;;;;;6.38;2.00;;;26.90;94.90;;;;;;4946705;29;20249;-43
2022/10/30 08:46:49;;;;;;;5.80;2.00;;;26.90;95.00;;;;;;4946859;29;20051;-41
2022/10/30 08:49:15;;;;;;;11.63;2.10;;;26.80;94.90;;;;;;4946790;29;20048;-47
2022/10/30 08:51:43;;;;;;;4.57;2.10;;;26.80;94.90;;;;;;4947097;29;20032;-44
2022/10/30 08:54:09;;;;;;;4.93;1.80;;;26.80;94.90;;;;;;4946689;29;20023;-43
2022/10/30 08:56:36;;;;;;;9.82;1.83;;;26.80;94.90;;;;;;4947110;29;20055;-49
2022/10/30 08:59:02;;;;;;;4.80;1.58;;;26.80;94.90;;;;;;4946601;29;20142;-43
2022/10/30 09:01:29;;;;;;;4.32;1.60;;;26.80;94.90;;;;;;4947175;29;20036;-49
2022/10/30 09:03:55;;;;;;;3.78;1.70;;;26.80;94.90;;;;;;4946810;29;20016;-40
2022/10/30 09:06:22;;;;;;;6.85;2.25;;;26.80;94.80;;;;;;4946988;29;20059;-42
2022/10/30 09:08:50;;;;;;;7.68;2.00;;;26.80;94.80;;;;;;4946820;29;20086;-42
2022/10/30 09:11:17;;;;;;;5.93;1.50;;;26.80;94.80;;;;;;4946859;29;20038;-42
2022/10/30 09:13:44;;;;;;;8.20;1.70;;;26.70;94.80;;;;;;4946309;29;20023;-44
2022/10/30 09:16:10;;;;;;;5.00;1.90;;;26.70;94.90;;;;;;4946413;29;20023;-42
2022/10/30 09:18:37;;;;;;;6.63;2.00;;;26.80;94.90;;;;;;4946557;29;20035;-45
2022/10/30 09:21:04;;;;;;;7.22;2.25;;;26.70;94.80;;;;;;4946701;29;20027;-49
2022/10/30 09:23:30;;;;;;;9.45;1.98;;;26.80;94.90;;;;;;4946457;29;20111;-46
2022/10/30 09:25:57;;;;;;;8.32;2.10;;;26.70;94.90;;;;;;4946909;29;20036;-43
2022/10/30 09:28:23;;;;;;;4.75;2.08;;;26.70;94.90;;;;;;4947064;29;20020;-44
2022/10/30 09:30:55;;;;;;;5.93;2.10;;;26.70;94.90;;;;;;4953017;29;20061;-43
2022/10/30 09:33:22;;;;;;;8.65;2.25;;;26.70;94.90;;;;;;4952557;29;20040;-43
2022/10/30 09:35:48;;;;;;;4.15;1.92;;;26.70;95.00;;;;;;4952888;29;20035;-43
2022/10/30 09:38:15;;;;;;;4.90;2.53;;;26.70;95.00;;;;;;4952857;29;20281;-43
2022/10/30 09:40:47;;;;;;;6.40;2.10;;;26.70;95.00;;;;;;4952899;29;20296;-41
2022/10/30 09:43:51;;;;;;;4.78;2.20;;;26.70;95.00;;;;;;4952487;29;20031;-43
2022/10/30 09:46:51;;;;;;;8.23;2.47;;;26.70;95.10;;;;;;4952929;29;20027;-44
2022/10/30 09:49:23;;;;;;;4.13;1.80;;;26.70;95.00;;;;;;4952406;29;20051;-44
2022/10/30 09:52:25;;;;;;;4.90;2.20;;;26.70;95.10;;;;;;4952230;29;20051;-44
2022/10/30 09:55:10;;;;;;;6.85;2.13;;;26.70;95.10;;;;;;4952551;29;20039;-41
2022/10/30 09:57:47;;;;;;;4.88;1.73;;;26.60;95.10;;;;;;4952586;29;20019;-43
2022/10/30 10:00:27;;;;;;;8.38;2.00;;;26.60;95.20;;;;;;4951609;29;20039;-50
2022/10/30 10:03:33;;;;;;;4.53;1.95;;;26.60;95.10;;;;;;4933329;29;20031;-50
2022/10/30 10:06:00;;;;;;;5.18;1.90;;;26.60;95.40;;;;;;4933686;29;20044;-44
2022/10/30 10:08:46;;;;;;;6.35;1.83;;;26.60;95.20;;;;;;4933948;29;20051;-42
2022/10/30 10:11:20;;;;;;;5.03;1.95;;;26.70;95.20;;;;;;4933764;29;20095;-43
2022/10/30 10:13:58;;;;;;;11.52;2.20;;;26.70;95.20;;;;;;4933152;29;20020;-46
2022/10/30 10:16:37;;;;;;;8.32;2.10;;;26.70;95.30;;;;;;4933861;29;20036;-43
2022/10/30 10:19:42;;;;;;;7.70;2.15;;;26.60;95.20;;;;;;4933307;29;20012;-46
2022/10/30 10:22:29;;;;;;;6.07;2.25;;;26.60;95.30;;;;;;4933227;29;20107;-45
2022/10/30 10:24:56;;;;;;;5.60;2.15;;;26.60;95.30;;;;;;4933426;29;20356;-44
2022/10/30 10:27:45;;;;;;;8.98;2.13;;;26.60;95.30;;;;;;4933066;29;20112;-44
2022/10/30 10:30:17;;;;;;;12.80;2.40;;;26.60;95.30;;;;;;4933454;29;20096;-44
2022/10/30 10:33:23;;;;;;;7.70;2.75;;;26.60;95.30;;;;;;4945613;29;20047;-49
2022/10/30 10:35:53;;;;;;;9.18;2.40;;;26.60;95.30;;;;;;4952484;29;20024;-46
2022/10/30 10:38:39;;;;;;;7.78;2.40;;;26.60;95.30;;;;;;4952354;29;20256;-44
2022/10/30 10:41:30;;;;;;;6.50;2.10;;;26.60;95.40;;;;;;4949396;29;20020;-41
2022/10/30 10:44:18;;;;;;;6.32;2.15;;;26.60;95.40;;;;;;4949255;29;20054;-42
2022/10/30 10:47:17;;;;;;;4.93;2.20;;;26.60;95.40;;;;;;4949763;29;20027;-44
2022/10/30 10:50:24;;;;;;;6.82;2.55;;;26.60;95.40;;;;;;4948851;29;20039;-43
2022/10/30 10:53:02;;;;;;;10.57;2.67;;;26.60;95.40;;;;;;4941167;29;20052;-48
2022/10/30 10:55:35;;;;;;;6.57;2.30;;;26.60;95.40;;;;;;4949719;29;20212;-43
2022/10/30 10:58:14;;;;;;;8.52;2.45;;;26.60;95.60;;;;;;4948838;29;20031;-48
2022/10/30 11:00:41;;;;;;;9.05;2.72;;;26.60;95.40;;;;;;4949575;29;20031;-45
2022/10/30 11:03:20;;;;;;;4.53;2.47;;;26.60;95.50;;;;;;4949075;29;20331;-44
2022/10/30 11:05:52;;;;;;;8.18;2.30;;;26.60;95.50;;;;;;4949236;29;20032;-48
2022/10/30 11:08:31;;;;;;;5.13;2.08;;;26.60;95.50;;;;;;4948741;29;20036;-45
2022/10/30 11:11:05;;;;;;;5.65;2.30;;;26.60;95.60;;;;;;4949082;29;20028;-52
2022/10/30 11:13:39;;;;;;;6.38;2.20;;;26.60;95.50;;;;;;4949113;29;20095;-46
2022/10/30 11:16:23;;;;;;;7.88;2.50;;;26.60;95.60;;;;;;4949132;29;20079;-44
2022/10/30 11:18:55;;;;;;;6.70;2.83;;;26.50;95.60;;;;;;4949338;29;20035;-43
2022/10/30 11:21:26;;;;;;;6.07;2.40;;;26.60;95.60;;;;;;4948887;29;20080;-44
2022/10/30 11:23:53;;;;;;;8.82;3.10;;;26.60;95.70;;;;;;4948530;29;20099;-49
2022/10/30 11:26:20;;;;;;;9.77;2.33;;;26.60;95.70;;;;;;4948866;29;20058;-53
2022/10/30 11:29:00;;;;;;;5.88;2.15;;;26.60;95.70;;;;;;4949033;29;20035;-47
2022/10/30 11:31:39;;;;;;;7.40;2.30;;;26.60;95.80;;;;;;4948789;29;20220;-44
2022/10/30 11:34:18;;;;;;;5.93;2.70;;;26.60;95.80;;;;;;4948243;29;20043;-44
2022/10/30 11:36:50;;;;;;;5.93;2.40;;;26.60;95.80;;;;;;4948534;29;20040;-45
2022/10/30 11:39:26;;;;;;;6.72;2.67;;;26.60;95.80;;;;;;4948724;29;20034;-43
2022/10/30 11:41:58;;;;;;;6.72;2.60;;;26.60;95.90;;;;;;4948327;29;20115;-43
2022/10/30 11:44:34;;;;;;;3.97;2.35;;;26.60;95.90;;;;;;4948267;29;20026;-44
2022/10/30 11:47:01;;;;;;;7.15;2.50;;;26.60;95.80;;;;;;4948089;29;20308;-43
2022/10/30 11:49:36;;;;;;;6.95;2.63;;;26.60;95.90;;;;;;4947778;29;20243;-52
2022/10/30 11:52:05;;;;;;;9.50;2.53;;;26.60;95.90;;;;;;4948064;29;20046;-43
2022/10/30 11:54:38;;;;;;;4.22;2.10;;;26.60;95.90;;;;;;4948061;29;20024;-52
2022/10/30 11:57:16;;;;;;;6.72;2.40;;;26.60;96.00;;;;;;4947600;29;20025;-47
2022/10/30 11:59:46;;;;;;;6.60;2.35;;;26.60;96.00;;;;;;4947826;29;20020;-54
2022/10/30 12:02:43;;;;;;;6.75;2.78;;;26.60;96.00;;;;;;4947997;29;20040;-45
2022/10/30 12:05:34;;;;;;;8.88;2.40;;;26.60;96.00;;;;;;4936100;29;20042;-44
2022/10/30 12:08:07;;;;;;;11.93;2.47;;;26.60;96.10;;;;;;4941108;29;20036;-46
2022/10/30 12:10:54;;;;;;;5.95;2.40;;;26.60;96.10;;;;;;4947815;29;20437;-50
2022/10/30 12:13:22;;;;;;;7.35;2.70;;;26.60;96.10;;;;;;4947480;29;20039;-46
2022/10/30 12:16:02;;;;;;;8.50;2.88;;;26.60;96.20;;;;;;4947695;29;20027;-48
2022/10/30 12:18:29;;;;;;;6.82;2.70;;;26.60;96.20;;;;;;4947410;29;20055;-46
2022/10/30 12:20:57;;;;;;;7.35;2.60;;;26.60;96.10;;;;;;4947740;29;20027;-44
2022/10/30 12:23:26;;;;;;;10.35;3.28;;;26.70;96.20;;;;;;4947449;29;20036;-49
2022/10/30 12:25:55;;;;;;;7.22;2.80;;;26.70;96.20;;;;;;4947355;29;20062;-42
2022/10/30 12:28:30;;;;;;;4.82;3.55;;;26.70;96.20;;;;;;4947076;29;20030;-47
2022/10/30 12:31:03;;;;;;;9.98;3.22;;;26.70;96.20;;;;;;4947623;29;20036;-45
2022/10/30 12:33:33;;;;;;;9.50;3.60;;;26.70;96.20;;;;;;4947267;29;20335;-45
2022/10/30 12:36:06;;;;;;;6.30;2.60;;;26.70;96.50;;;;;;4947296;29;20046;-44
2022/10/30 12:38:43;;;;;;;6.43;2.75;;;26.70;96.20;;;;;;4947151;29;20027;-44
2022/10/30 12:41:25;;;;;;;6.55;2.40;;;26.80;96.10;;;;;;4947367;29;20055;-46
2022/10/30 12:44:21;;;;;;;8.98;2.72;;;26.70;96.10;;;;;;4946872;29;20032;-43
2022/10/30 12:47:03;;;;;;;5.45;2.28;;;26.80;96.10;;;;;;4940577;29;20047;-42
2022/10/30 12:49:41;;;;;;;5.00;2.17;;;26.80;96.00;;;;;;4946725;29;20039;-44
2022/10/30 12:52:38;;;;;;;3.78;2.05;;;26.80;96.10;;;;;;4946935;29;20087;-44
2022/10/30 12:55:33;;;;;;;5.97;2.50;;;26.90;96.10;;;;;;4944230;29;20056;-44
2022/10/30 12:58:16;;;;;;;8.63;2.00;;;26.90;96.10;;;;;;4946651;29;20264;-45
2022/10/30 13:00:52;;;;;;;4.10;1.50;;;26.90;95.90;;;;;;4947056;29;20032;-49
2022/10/30 13:03:59;;;;;;;2.67;1.73;;;26.90;95.90;;;;;;4945944;29;20107;-44
2022/10/30 13:06:34;;;;;;;3.15;1.50;;;26.90;95.80;;;;;;4934090;29;20070;-47
2022/10/30 13:09:09;;;;;;;6.88;2.05;;;26.90;95.70;;;;;;4946755;29;20319;-46